sensor_id;sensor_type;location;lat;lon;timestamp;temperature;humidity
36132;DHT22;22185;48.738;9.324;2023-03-16T00:00:33;0.60;99.90
36132;DHT22;22185;48.738;9.324;2023-03-16T00:02:35;0.50;99.90
36132;DHT22;22185;48.738;9.324;2023-03-16T00:04:37;0.50;99.90
36132;DHT22;22185;48.738;9.324;2023-03-16T00:06:38;0.50;99.90
36132;DHT22;22185;48.738;9.324;2023-03-16T00:08:40;0.50;99.90
36132;DHT22;22185;48.738;9.324;2023-03-16T00:10:44;0.50;99.90
36132;DHT22;22185;48.738;9.324;2023-03-16T00:12:48;0.50;99.90
36132;DHT22;22185;48.738;9.324;2023-03-16T00:14:50;0.40;99.90
36132;DHT22;22185;48.738;9.324;2023-03-16T00:16:51;0.40;99.90
36132;DHT22;22185;48.738;9.324;2023-03-16T00:18:53;0.40;99.90
36132;DHT22;22185;48.738;9.324;2023-03-16T00:20:57;0.40;99.90
36132;DHT22;22185;48.738;9.324;2023-03-16T00:22:59;0.40;99.90
36132;DHT22;22185;48.738;9.324;2023-03-16T00:25:03;0.50;99.90
36132;DHT22;22185;48.738;9.324;2023-03-16T00:27:05;0.50;99.90
36132;DHT22;22185;48.738;9.324;2023-03-16T00:29:06;0.50;99.90
36132;DHT22;22185;48.738;9.324;2023-03-16T00:31:09;0.40;99.90
36132;DHT22;22185;48.738;9.324;2023-03-16T00:33:15;0.40;99.90
36132;DHT22;22185;48.738;9.324;2023-03-16T00:35:17;0.40;99.90
36132;DHT22;22185;48.738;9.324;2023-03-16T00:37:19;0.40;99.90
36132;DHT22;22185;48.738;9.324;2023-03-16T00:39:24;0.40;99.90
36132;DHT22;22185;48.738;9.324;2023-03-16T00:41:25;0.30;99.90
36132;DHT22;22185;48.738;9.324;2023-03-16T00:43:27;0.30;99.90
36132;DHT22;22185;48.738;9.324;2023-03-16T00:45:29;0.30;99.90
36132;DHT22;22185;48.738;9.324;2023-03-16T00:47:31;0.30;99.90
36132;DHT22;22185;48.738;9.324;2023-03-16T00:49:34;0.30;99.90
36132;DHT22;22185;48.738;9.324;2023-03-16T00:51:36;0.30;99.90
36132;DHT22;22185;48.738;9.324;2023-03-16T00:53:38;0.30;99.90
36132;DHT22;22185;48.738;9.324;2023-03-16T00:55:40;0.30;99.90
36132;DHT22;22185;48.738;9.324;2023-03-16T00:57:42;0.20;99.90
36132;DHT22;22185;48.738;9.324;2023-03-16T00:59:44;0.30;99.90
36132;DHT22;22185;48.738;9.324;2023-03-16T01:01:46;0.30;99.90
36132;DHT22;22185;48.738;9.324;2023-03-16T01:03:48;0.30;99.90
36132;DHT22;22185;48.738;9.324;2023-03-16T01:05:50;0.30;99.90
36132;DHT22;22185;48.738;9.324;2023-03-16T01:07:51;0.40;99.90
36132;DHT22;22185;48.738;9.324;2023-03-16T01:09:53;0.30;99.90
36132;DHT22;22185;48.738;9.324;2023-03-16T01:11:55;0.30;99.90
36132;DHT22;22185;48.738;9.324;2023-03-16T01:13:56;0.20;99.90
36132;DHT22;22185;48.738;9.324;2023-03-16T01:15:59;0.20;99.90
36132;DHT22;22185;48.738;9.324;2023-03-16T01:18:00;0.20;99.90
36132;DHT22;22185;48.738;9.324;2023-03-16T01:20:02;0.30;99.90
36132;DHT22;22185;48.738;9.324;2023-03-16T01:22:08;0.20;99.90
36132;DHT22;22185;48.738;9.324;2023-03-16T01:24:10;0.20;99.90
36132;DHT22;22185;48.738;9.324;2023-03-16T01:26:12;0.20;99.90
36132;DHT22;22185;48.738;9.324;2023-03-16T01:28:15;0.20;99.90
36132;DHT22;22185;48.738;9.324;2023-03-16T01:30:17;0.20;99.90
36132;DHT22;22185;48.738;9.324;2023-03-16T01:32:18;0.20;99.90
36132;DHT22;22185;48.738;9.324;2023-03-16T01:34:21;0.10;99.90
36132;DHT22;22185;48.738;9.324;2023-03-16T01:36:23;0.20;99.90
36132;DHT22;22185;48.738;9.324;2023-03-16T01:38:24;0.10;99.90
36132;DHT22;22185;48.738;9.324;2023-03-16T01:40:26;0.20;99.90
36132;DHT22;22185;48.738;9.324;2023-03-16T01:42:28;0.20;99.90
36132;DHT22;22185;48.738;9.324;2023-03-16T01:44:48;0.10;99.90
36132;DHT22;22185;48.738;9.324;2023-03-16T01:46:50;0.20;99.90
36132;DHT22;22185;48.738;9.324;2023-03-16T01:48:56;0.20;99.90
36132;DHT22;22185;48.738;9.324;2023-03-16T01:50:59;0.20;99.90
36132;DHT22;22185;48.738;9.324;2023-03-16T01:53:01;0.10;99.90
36132;DHT22;22185;48.738;9.324;2023-03-16T01:55:04;0.10;99.90
36132;DHT22;22185;48.738;9.324;2023-03-16T01:57:07;0.10;99.90
36132;DHT22;22185;48.738;9.324;2023-03-16T01:59:11;0.00;99.90
36132;DHT22;22185;48.738;9.324;2023-03-16T02:01:14;0.00;99.90
36132;DHT22;22185;48.738;9.324;2023-03-16T02:03:17;0.00;99.90
36132;DHT22;22185;48.738;9.324;2023-03-16T02:05:23;0.00;99.90
36132;DHT22;22185;48.738;9.324;2023-03-16T02:07:28;0.00;99.90
36132;DHT22;22185;48.738;9.324;2023-03-16T02:09:32;0.00;99.90
36132;DHT22;22185;48.738;9.324;2023-03-16T02:11:35;0.00;99.90
36132;DHT22;22185;48.738;9.324;2023-03-16T02:13:37;-0.10;99.90
36132;DHT22;22185;48.738;9.324;2023-03-16T02:15:38;0.00;99.90
36132;DHT22;22185;48.738;9.324;2023-03-16T02:17:40;0.00;99.90
36132;DHT22;22185;48.738;9.324;2023-03-16T02:22:05;-0.10;99.90
36132;DHT22;22185;48.738;9.324;2023-03-16T02:24:07;0.00;99.90
36132;DHT22;22185;48.738;9.324;2023-03-16T02:30:49;-0.10;99.90
36132;DHT22;22185;48.738;9.324;2023-03-16T02:32:51;-0.10;99.90
36132;DHT22;22185;48.738;9.324;2023-03-16T02:34:54;-0.10;99.90
36132;DHT22;22185;48.738;9.324;2023-03-16T02:36:57;-0.10;99.90
36132;DHT22;22185;48.738;9.324;2023-03-16T02:38:59;-0.10;99.90
36132;DHT22;22185;48.738;9.324;2023-03-16T02:41:11;-0.10;99.90
36132;DHT22;22185;48.738;9.324;2023-03-16T02:43:21;-0.10;99.90
36132;DHT22;22185;48.738;9.324;2023-03-16T02:45:25;-0.20;99.90
36132;DHT22;22185;48.738;9.324;2023-03-16T02:47:39;-0.20;99.90
36132;DHT22;22185;48.738;9.324;2023-03-16T02:49:43;-0.20;99.90
36132;DHT22;22185;48.738;9.324;2023-03-16T02:51:45;-0.10;99.90
36132;DHT22;22185;48.738;9.324;2023-03-16T02:53:47;-0.10;99.90
36132;DHT22;22185;48.738;9.324;2023-03-16T02:55:49;-0.10;99.90
36132;DHT22;22185;48.738;9.324;2023-03-16T02:57:51;-0.10;99.90
36132;DHT22;22185;48.738;9.324;2023-03-16T02:59:52;-0.20;99.90
36132;DHT22;22185;48.738;9.324;2023-03-16T03:01:54;-0.20;99.90
36132;DHT22;22185;48.738;9.324;2023-03-16T03:03:56;-0.30;99.90
36132;DHT22;22185;48.738;9.324;2023-03-16T03:05:58;-0.20;99.90
36132;DHT22;22185;48.738;9.324;2023-03-16T03:08:00;-0.20;99.90
36132;DHT22;22185;48.738;9.324;2023-03-16T03:10:03;-0.20;99.90
36132;DHT22;22185;48.738;9.324;2023-03-16T03:12:07;-0.20;99.90
36132;DHT22;22185;48.738;9.324;2023-03-16T03:14:09;-0.20;99.90
36132;DHT22;22185;48.738;9.324;2023-03-16T03:16:11;-0.20;99.90
36132;DHT22;22185;48.738;9.324;2023-03-16T03:18:13;-0.30;99.90
36132;DHT22;22185;48.738;9.324;2023-03-16T03:20:15;-0.20;99.90
36132;DHT22;22185;48.738;9.324;2023-03-16T03:22:17;-0.30;99.90
36132;DHT22;22185;48.738;9.324;2023-03-16T03:24:19;-0.30;99.90
36132;DHT22;22185;48.738;9.324;2023-03-16T03:26:21;-0.30;99.90
36132;DHT22;22185;48.738;9.324;2023-03-16T03:28:22;-0.30;99.90
36132;DHT22;22185;48.738;9.324;2023-03-16T03:30:24;-0.20;99.90
36132;DHT22;22185;48.738;9.324;2023-03-16T03:32:26;-0.30;99.90
36132;DHT22;22185;48.738;9.324;2023-03-16T03:34:28;-0.30;99.90
36132;DHT22;22185;48.738;9.324;2023-03-16T03:36:30;-0.30;99.90
36132;DHT22;22185;48.738;9.324;2023-03-16T03:38:32;-0.30;99.90
36132;DHT22;22185;48.738;9.324;2023-03-16T03:40:33;-0.30;99.90
36132;DHT22;22185;48.738;9.324;2023-03-16T03:42:35;-0.30;99.90
36132;DHT22;22185;48.738;9.324;2023-03-16T03:44:37;-0.30;99.90
36132;DHT22;22185;48.738;9.324;2023-03-16T03:46:38;-0.40;99.90
36132;DHT22;22185;48.738;9.324;2023-03-16T03:48:40;-0.40;99.90
36132;DHT22;22185;48.738;9.324;2023-03-16T03:50:42;-0.40;99.90
36132;DHT22;22185;48.738;9.324;2023-03-16T03:52:43;-0.30;99.90
36132;DHT22;22185;48.738;9.324;2023-03-16T03:54:45;-0.30;99.90
36132;DHT22;22185;48.738;9.324;2023-03-16T03:56:47;-0.40;99.90
36132;DHT22;22185;48.738;9.324;2023-03-16T03:58:48;-0.30;99.90
36132;DHT22;22185;48.738;9.324;2023-03-16T04:00:50;-0.40;99.90
36132;DHT22;22185;48.738;9.324;2023-03-16T04:02:52;-0.40;99.90
36132;DHT22;22185;48.738;9.324;2023-03-16T04:04:54;-0.40;99.90
36132;DHT22;22185;48.738;9.324;2023-03-16T04:06:55;-0.40;99.90
36132;DHT22;22185;48.738;9.324;2023-03-16T04:08:57;-0.40;99.90
36132;DHT22;22185;48.738;9.324;2023-03-16T04:10:59;-0.40;99.90
36132;DHT22;22185;48.738;9.324;2023-03-16T04:13:01;-0.40;99.90
36132;DHT22;22185;48.738;9.324;2023-03-16T04:15:03;-0.40;99.90
36132;DHT22;22185;48.738;9.324;2023-03-16T04:17:05;-0.40;99.90
36132;DHT22;22185;48.738;9.324;2023-03-16T04:19:07;-0.40;99.90
36132;DHT22;22185;48.738;9.324;2023-03-16T04:21:12;-0.50;99.90
36132;DHT22;22185;48.738;9.324;2023-03-16T04:23:14;-0.40;99.90
36132;DHT22;22185;48.738;9.324;2023-03-16T04:25:17;-0.40;99.90
36132;DHT22;22185;48.738;9.324;2023-03-16T04:27:18;-0.40;99.90
36132;DHT22;22185;48.738;9.324;2023-03-16T04:29:20;-0.40;99.90
36132;DHT22;22185;48.738;9.324;2023-03-16T04:31:22;-0.40;99.90
36132;DHT22;22185;48.738;9.324;2023-03-16T04:33:23;-0.40;99.90
36132;DHT22;22185;48.738;9.324;2023-03-16T04:35:25;-0.40;99.90
36132;DHT22;22185;48.738;9.324;2023-03-16T04:37:27;-0.40;99.90
36132;DHT22;22185;48.738;9.324;2023-03-16T04:39:28;-0.50;99.90
36132;DHT22;22185;48.738;9.324;2023-03-16T04:41:30;-0.50;99.90
36132;DHT22;22185;48.738;9.324;2023-03-16T04:43:32;-0.50;99.90
36132;DHT22;22185;48.738;9.324;2023-03-16T04:45:35;-0.50;99.90
36132;DHT22;22185;48.738;9.324;2023-03-16T04:47:36;-0.50;99.90
36132;DHT22;22185;48.738;9.324;2023-03-16T04:49:38;-0.50;99.90
36132;DHT22;22185;48.738;9.324;2023-03-16T04:51:40;-0.50;99.90
36132;DHT22;22185;48.738;9.324;2023-03-16T04:53:43;-0.50;99.90
36132;DHT22;22185;48.738;9.324;2023-03-16T04:55:45;-0.50;99.90
36132;DHT22;22185;48.738;9.324;2023-03-16T04:57:47;-0.50;99.90
36132;DHT22;22185;48.738;9.324;2023-03-16T04:59:49;-0.50;99.90
36132;DHT22;22185;48.738;9.324;2023-03-16T05:01:51;-0.50;99.90
36132;DHT22;22185;48.738;9.324;2023-03-16T05:03:54;-0.50;99.90
36132;DHT22;22185;48.738;9.324;2023-03-16T05:05:57;-0.50;99.90
36132;DHT22;22185;48.738;9.324;2023-03-16T05:07:59;-0.50;99.90
36132;DHT22;22185;48.738;9.324;2023-03-16T05:10:02;-0.50;99.90
36132;DHT22;22185;48.738;9.324;2023-03-16T05:12:04;-0.50;99.90
36132;DHT22;22185;48.738;9.324;2023-03-16T05:14:05;-0.40;99.90
36132;DHT22;22185;48.738;9.324;2023-03-16T05:16:07;-0.50;99.90
36132;DHT22;22185;48.738;9.324;2023-03-16T05:18:09;-0.50;99.90
36132;DHT22;22185;48.738;9.324;2023-03-16T05:20:11;-0.50;99.90
36132;DHT22;22185;48.738;9.324;2023-03-16T05:22:16;-0.50;99.90
36132;DHT22;22185;48.738;9.324;2023-03-16T05:24:18;-0.50;99.90
36132;DHT22;22185;48.738;9.324;2023-03-16T05:26:20;-0.40;99.90
36132;DHT22;22185;48.738;9.324;2023-03-16T05:28:21;-0.40;99.90
36132;DHT22;22185;48.738;9.324;2023-03-16T05:30:24;-0.40;99.90
36132;DHT22;22185;48.738;9.324;2023-03-16T05:32:27;-0.50;99.90
36132;DHT22;22185;48.738;9.324;2023-03-16T05:34:28;-0.50;99.90
36132;DHT22;22185;48.738;9.324;2023-03-16T05:36:32;-0.50;99.90
36132;DHT22;22185;48.738;9.324;2023-03-16T05:38:36;-0.50;99.90
36132;DHT22;22185;48.738;9.324;2023-03-16T05:40:39;-0.50;99.90
36132;DHT22;22185;48.738;9.324;2023-03-16T05:42:42;-0.50;99.90
36132;DHT22;22185;48.738;9.324;2023-03-16T05:44:43;-0.50;99.90
36132;DHT22;22185;48.738;9.324;2023-03-16T05:46:46;-0.40;99.90
36132;DHT22;22185;48.738;9.324;2023-03-16T05:48:48;-0.40;99.90
36132;DHT22;22185;48.738;9.324;2023-03-16T05:50:50;-0.40;99.90
36132;DHT22;22185;48.738;9.324;2023-03-16T05:52:52;-0.40;99.90
36132;DHT22;22185;48.738;9.324;2023-03-16T05:54:54;-0.40;99.90
36132;DHT22;22185;48.738;9.324;2023-03-16T05:56:56;-0.40;99.90
36132;DHT22;22185;48.738;9.324;2023-03-16T05:59:01;-0.40;99.90
36132;DHT22;22185;48.738;9.324;2023-03-16T06:01:03;-0.30;99.90
36132;DHT22;22185;48.738;9.324;2023-03-16T06:03:06;-0.30;99.90
36132;DHT22;22185;48.738;9.324;2023-03-16T06:05:08;-0.20;99.90
36132;DHT22;22185;48.738;9.324;2023-03-16T06:07:10;-0.20;99.90
36132;DHT22;22185;48.738;9.324;2023-03-16T06:09:11;-0.20;99.90
36132;DHT22;22185;48.738;9.324;2023-03-16T06:11:14;-0.30;99.90
36132;DHT22;22185;48.738;9.324;2023-03-16T06:13:16;-0.30;99.90
36132;DHT22;22185;48.738;9.324;2023-03-16T06:15:17;-0.30;99.90
36132;DHT22;22185;48.738;9.324;2023-03-16T06:17:19;-0.30;99.90
36132;DHT22;22185;48.738;9.324;2023-03-16T06:19:21;-0.20;99.90
36132;DHT22;22185;48.738;9.324;2023-03-16T06:21:23;-0.20;99.90
36132;DHT22;22185;48.738;9.324;2023-03-16T06:23:25;-0.20;99.90
36132;DHT22;22185;48.738;9.324;2023-03-16T06:25:26;-0.10;99.90
36132;DHT22;22185;48.738;9.324;2023-03-16T06:27:28;-0.10;99.90
36132;DHT22;22185;48.738;9.324;2023-03-16T06:29:30;-0.10;99.90
36132;DHT22;22185;48.738;9.324;2023-03-16T06:31:31;-0.10;99.90
36132;DHT22;22185;48.738;9.324;2023-03-16T06:33:34;-0.10;99.90
36132;DHT22;22185;48.738;9.324;2023-03-16T06:35:36;0.00;99.90
36132;DHT22;22185;48.738;9.324;2023-03-16T06:37:38;0.00;99.90
36132;DHT22;22185;48.738;9.324;2023-03-16T06:39:40;0.00;99.90
36132;DHT22;22185;48.738;9.324;2023-03-16T06:41:41;0.00;99.90
36132;DHT22;22185;48.738;9.324;2023-03-16T06:43:44;0.10;99.90
36132;DHT22;22185;48.738;9.324;2023-03-16T06:45:46;0.10;99.90
36132;DHT22;22185;48.738;9.324;2023-03-16T06:47:47;0.20;99.90
36132;DHT22;22185;48.738;9.324;2023-03-16T06:49:51;0.20;99.90
36132;DHT22;22185;48.738;9.324;2023-03-16T06:51:55;0.30;99.90
36132;DHT22;22185;48.738;9.324;2023-03-16T06:53:59;0.30;99.90
36132;DHT22;22185;48.738;9.324;2023-03-16T06:56:00;0.40;99.90
36132;DHT22;22185;48.738;9.324;2023-03-16T06:58:02;0.40;99.90
36132;DHT22;22185;48.738;9.324;2023-03-16T07:00:04;0.40;99.90
36132;DHT22;22185;48.738;9.324;2023-03-16T07:02:09;0.40;99.90
36132;DHT22;22185;48.738;9.324;2023-03-16T07:04:12;0.50;99.90
36132;DHT22;22185;48.738;9.324;2023-03-16T07:06:14;0.60;99.90
36132;DHT22;22185;48.738;9.324;2023-03-16T07:08:16;0.60;99.90
36132;DHT22;22185;48.738;9.324;2023-03-16T07:10:17;0.70;99.90
36132;DHT22;22185;48.738;9.324;2023-03-16T07:12:19;0.70;99.90
36132;DHT22;22185;48.738;9.324;2023-03-16T07:14:21;0.70;99.90
36132;DHT22;22185;48.738;9.324;2023-03-16T07:16:25;0.80;99.90
36132;DHT22;22185;48.738;9.324;2023-03-16T07:18:26;0.80;99.90
36132;DHT22;22185;48.738;9.324;2023-03-16T07:20:30;0.90;99.90
36132;DHT22;22185;48.738;9.324;2023-03-16T07:22:33;0.90;99.90
36132;DHT22;22185;48.738;9.324;2023-03-16T07:24:35;1.00;99.90
36132;DHT22;22185;48.738;9.324;2023-03-16T07:26:36;1.00;99.90
36132;DHT22;22185;48.738;9.324;2023-03-16T07:28:38;1.10;99.90
36132;DHT22;22185;48.738;9.324;2023-03-16T07:30:40;1.20;99.90
36132;DHT22;22185;48.738;9.324;2023-03-16T07:32:53;1.20;99.90
36132;DHT22;22185;48.738;9.324;2023-03-16T07:34:55;1.30;99.90
36132;DHT22;22185;48.738;9.324;2023-03-16T07:36:59;1.30;99.90
36132;DHT22;22185;48.738;9.324;2023-03-16T07:39:01;1.40;99.90
36132;DHT22;22185;48.738;9.324;2023-03-16T07:41:03;1.50;99.90
36132;DHT22;22185;48.738;9.324;2023-03-16T07:43:05;1.50;99.90
36132;DHT22;22185;48.738;9.324;2023-03-16T07:45:07;1.60;99.90
36132;DHT22;22185;48.738;9.324;2023-03-16T07:47:10;1.70;99.90
36132;DHT22;22185;48.738;9.324;2023-03-16T07:49:13;1.80;99.90
36132;DHT22;22185;48.738;9.324;2023-03-16T07:51:14;1.90;99.90
36132;DHT22;22185;48.738;9.324;2023-03-16T07:53:16;2.00;99.90
36132;DHT22;22185;48.738;9.324;2023-03-16T07:55:18;2.10;99.90
36132;DHT22;22185;48.738;9.324;2023-03-16T07:57:21;2.30;99.90
36132;DHT22;22185;48.738;9.324;2023-03-16T07:59:22;2.30;99.90
36132;DHT22;22185;48.738;9.324;2023-03-16T08:01:24;2.40;99.90
36132;DHT22;22185;48.738;9.324;2023-03-16T08:03:26;2.40;99.90
36132;DHT22;22185;48.738;9.324;2023-03-16T08:05:29;2.50;99.90
36132;DHT22;22185;48.738;9.324;2023-03-16T08:07:33;2.60;99.90
36132;DHT22;22185;48.738;9.324;2023-03-16T08:09:35;2.70;99.90
36132;DHT22;22185;48.738;9.324;2023-03-16T08:11:38;3.10;99.90
36132;DHT22;22185;48.738;9.324;2023-03-16T08:13:40;3.20;99.90
36132;DHT22;22185;48.738;9.324;2023-03-16T08:15:45;3.40;99.90
36132;DHT22;22185;48.738;9.324;2023-03-16T08:17:46;3.40;99.90
36132;DHT22;22185;48.738;9.324;2023-03-16T08:19:48;3.50;99.90
36132;DHT22;22185;48.738;9.324;2023-03-16T08:21:50;3.60;99.90
36132;DHT22;22185;48.738;9.324;2023-03-16T08:24:02;3.60;99.90
36132;DHT22;22185;48.738;9.324;2023-03-16T08:26:03;3.80;99.90
36132;DHT22;22185;48.738;9.324;2023-03-16T08:28:09;3.90;99.90
36132;DHT22;22185;48.738;9.324;2023-03-16T08:30:11;3.90;99.90
36132;DHT22;22185;48.738;9.324;2023-03-16T08:32:13;4.00;99.90
36132;DHT22;22185;48.738;9.324;2023-03-16T08:34:15;4.00;99.90
36132;DHT22;22185;48.738;9.324;2023-03-16T08:36:18;4.10;99.90
36132;DHT22;22185;48.738;9.324;2023-03-16T08:38:21;4.10;99.90
36132;DHT22;22185;48.738;9.324;2023-03-16T08:40:23;4.20;99.90
36132;DHT22;22185;48.738;9.324;2023-03-16T08:42:25;4.40;99.90
36132;DHT22;22185;48.738;9.324;2023-03-16T08:44:29;4.50;99.90
36132;DHT22;22185;48.738;9.324;2023-03-16T08:46:32;4.60;99.90
36132;DHT22;22185;48.738;9.324;2023-03-16T08:48:35;4.70;99.90
36132;DHT22;22185;48.738;9.324;2023-03-16T08:50:38;4.70;99.90
36132;DHT22;22185;48.738;9.324;2023-03-16T08:52:40;4.80;99.90
36132;DHT22;22185;48.738;9.324;2023-03-16T08:54:42;4.90;99.90
36132;DHT22;22185;48.738;9.324;2023-03-16T08:57:02;5.10;99.90
36132;DHT22;22185;48.738;9.324;2023-03-16T08:59:04;5.20;99.90
36132;DHT22;22185;48.738;9.324;2023-03-16T09:01:08;5.20;99.90
36132;DHT22;22185;48.738;9.324;2023-03-16T09:03:10;5.20;99.90
36132;DHT22;22185;48.738;9.324;2023-03-16T09:05:12;5.20;99.90
36132;DHT22;22185;48.738;9.324;2023-03-16T09:07:15;5.30;99.90
36132;DHT22;22185;48.738;9.324;2023-03-16T09:09:17;5.60;99.90
36132;DHT22;22185;48.738;9.324;2023-03-16T09:11:18;5.70;99.90
36132;DHT22;22185;48.738;9.324;2023-03-16T09:13:22;5.70;99.90
36132;DHT22;22185;48.738;9.324;2023-03-16T09:15:24;5.80;99.90
36132;DHT22;22185;48.738;9.324;2023-03-16T09:17:27;5.90;99.90
36132;DHT22;22185;48.738;9.324;2023-03-16T09:19:29;6.10;99.90
36132;DHT22;22185;48.738;9.324;2023-03-16T09:21:50;6.20;99.90
36132;DHT22;22185;48.738;9.324;2023-03-16T09:23:54;6.20;99.90
36132;DHT22;22185;48.738;9.324;2023-03-16T09:26:00;6.20;99.90
36132;DHT22;22185;48.738;9.324;2023-03-16T09:28:03;6.30;99.90
36132;DHT22;22185;48.738;9.324;2023-03-16T09:30:05;6.40;99.90
36132;DHT22;22185;48.738;9.324;2023-03-16T09:32:08;6.60;99.90
36132;DHT22;22185;48.738;9.324;2023-03-16T09:34:10;6.70;99.90
36132;DHT22;22185;48.738;9.324;2023-03-16T09:36:12;6.80;99.90
36132;DHT22;22185;48.738;9.324;2023-03-16T09:38:14;6.90;99.90
36132;DHT22;22185;48.738;9.324;2023-03-16T09:40:27;6.90;99.90
36132;DHT22;22185;48.738;9.324;2023-03-16T09:44:39;7.20;99.90
36132;DHT22;22185;48.738;9.324;2023-03-16T09:46:46;7.20;99.90
36132;DHT22;22185;48.738;9.324;2023-03-16T09:48:49;7.40;99.90
36132;DHT22;22185;48.738;9.324;2023-03-16T09:50:50;7.50;99.90
36132;DHT22;22185;48.738;9.324;2023-03-16T09:52:56;7.70;99.90
36132;DHT22;22185;48.738;9.324;2023-03-16T09:57:10;7.90;99.90
36132;DHT22;22185;48.738;9.324;2023-03-16T09:59:15;8.20;99.90
36132;DHT22;22185;48.738;9.324;2023-03-16T10:05:51;8.90;99.90
36132;DHT22;22185;48.738;9.324;2023-03-16T10:12:05;9.20;99.90
36132;DHT22;22185;48.738;9.324;2023-03-16T10:16:22;9.40;99.90
36132;DHT22;22185;48.738;9.324;2023-03-16T10:18:27;9.60;99.90
36132;DHT22;22185;48.738;9.324;2023-03-16T10:20:30;9.60;99.90
36132;DHT22;22185;48.738;9.324;2023-03-16T10:22:35;9.50;99.90
36132;DHT22;22185;48.738;9.324;2023-03-16T10:24:41;9.70;99.90
36132;DHT22;22185;48.738;9.324;2023-03-16T10:26:46;9.80;99.90
36132;DHT22;22185;48.738;9.324;2023-03-16T10:28:51;10.10;99.90
36132;DHT22;22185;48.738;9.324;2023-03-16T10:30:54;10.20;99.90
36132;DHT22;22185;48.738;9.324;2023-03-16T10:32:59;10.30;99.90
36132;DHT22;22185;48.738;9.324;2023-03-16T10:35:04;10.20;99.90
36132;DHT22;22185;48.738;9.324;2023-03-16T10:37:08;10.10;99.90
36132;DHT22;22185;48.738;9.324;2023-03-16T10:39:14;10.10;99.90
36132;DHT22;22185;48.738;9.324;2023-03-16T10:43:36;10.30;99.90
36132;DHT22;22185;48.738;9.324;2023-03-16T10:46:13;10.30;99.90
36132;DHT22;22185;48.738;9.324;2023-03-16T10:48:31;10.60;99.90
36132;DHT22;22185;48.738;9.324;2023-03-16T10:51:15;10.50;99.90
36132;DHT22;22185;48.738;9.324;2023-03-16T10:53:34;10.80;99.90
36132;DHT22;22185;48.738;9.324;2023-03-16T11:00:50;11.00;99.90
36132;DHT22;22185;48.738;9.324;2023-03-16T11:02:54;11.10;99.90
36132;DHT22;22185;48.738;9.324;2023-03-16T11:04:57;11.10;99.90
36132;DHT22;22185;48.738;9.324;2023-03-16T11:06:59;11.10;99.90
36132;DHT22;22185;48.738;9.324;2023-03-16T11:09:02;11.40;99.90
36132;DHT22;22185;48.738;9.324;2023-03-16T11:11:07;11.40;99.90
36132;DHT22;22185;48.738;9.324;2023-03-16T11:13:12;11.40;99.90
36132;DHT22;22185;48.738;9.324;2023-03-16T11:15:16;11.40;99.90
36132;DHT22;22185;48.738;9.324;2023-03-16T11:17:28;11.30;99.90
36132;DHT22;22185;48.738;9.324;2023-03-16T11:19:37;11.50;99.90
36132;DHT22;22185;48.738;9.324;2023-03-16T11:23:55;11.90;99.90
36132;DHT22;22185;48.738;9.324;2023-03-16T11:26:01;12.10;99.90
36132;DHT22;22185;48.738;9.324;2023-03-16T11:32:32;12.60;99.90
36132;DHT22;22185;48.738;9.324;2023-03-16T11:34:36;12.40;99.90
36132;DHT22;22185;48.738;9.324;2023-03-16T11:41:21;13.20;99.90
36132;DHT22;22185;48.738;9.324;2023-03-16T11:43:33;13.30;99.90
36132;DHT22;22185;48.738;9.324;2023-03-16T11:45:46;13.20;99.90
36132;DHT22;22185;48.738;9.324;2023-03-16T11:49:56;13.40;99.90
36132;DHT22;22185;48.738;9.324;2023-03-16T11:54:09;14.10;99.90
36132;DHT22;22185;48.738;9.324;2023-03-16T12:09:59;16.30;99.90
36132;DHT22;22185;48.738;9.324;2023-03-16T12:14:11;18.60;99.90
36132;DHT22;22185;48.738;9.324;2023-03-16T12:18:51;20.00;94.50
36132;DHT22;22185;48.738;9.324;2023-03-16T12:20:56;19.50;93.90
36132;DHT22;22185;48.738;9.324;2023-03-16T12:23:03;18.70;94.60
36132;DHT22;22185;48.738;9.324;2023-03-16T12:25:16;18.70;94.20
36132;DHT22;22185;48.738;9.324;2023-03-16T12:27:28;19.80;94.60
36132;DHT22;22185;48.738;9.324;2023-03-16T12:29:36;20.70;90.10
36132;DHT22;22185;48.738;9.324;2023-03-16T12:31:58;20.50;87.30
36132;DHT22;22185;48.738;9.324;2023-03-16T12:40:32;21.10;82.50
36132;DHT22;22185;48.738;9.324;2023-03-16T12:47:27;22.60;79.70
36132;DHT22;22185;48.738;9.324;2023-03-16T12:49:32;22.70;76.40
36132;DHT22;22185;48.738;9.324;2023-03-16T12:51:35;23.50;75.50
36132;DHT22;22185;48.738;9.324;2023-03-16T12:53:39;22.40;76.40
36132;DHT22;22185;48.738;9.324;2023-03-16T12:55:43;21.50;74.40
36132;DHT22;22185;48.738;9.324;2023-03-16T12:57:47;21.20;78.00
36132;DHT22;22185;48.738;9.324;2023-03-16T12:59:53;19.80;76.50
36132;DHT22;22185;48.738;9.324;2023-03-16T13:01:56;19.20;83.60
36132;DHT22;22185;48.738;9.324;2023-03-16T13:04:00;18.40;84.40
36132;DHT22;22185;48.738;9.324;2023-03-16T13:06:03;17.60;82.50
36132;DHT22;22185;48.738;9.324;2023-03-16T13:08:09;17.30;86.20
36132;DHT22;22185;48.738;9.324;2023-03-16T13:10:12;17.30;89.40
36132;DHT22;22185;48.738;9.324;2023-03-16T13:16:31;17.70;84.50
36132;DHT22;22185;48.738;9.324;2023-03-16T13:18:34;18.00;88.10
36132;DHT22;22185;48.738;9.324;2023-03-16T13:20:50;18.10;89.50
36132;DHT22;22185;48.738;9.324;2023-03-16T13:27:19;22.40;81.70
36132;DHT22;22185;48.738;9.324;2023-03-16T13:29:25;22.50;73.90
36132;DHT22;22185;48.738;9.324;2023-03-16T13:31:35;22.60;70.10
36132;DHT22;22185;48.738;9.324;2023-03-16T13:33:37;23.70;76.80
36132;DHT22;22185;48.738;9.324;2023-03-16T13:35:41;24.00;72.30
36132;DHT22;22185;48.738;9.324;2023-03-16T13:37:43;23.90;75.30
36132;DHT22;22185;48.738;9.324;2023-03-16T13:40:01;22.00;67.50
36132;DHT22;22185;48.738;9.324;2023-03-16T13:44:13;20.80;70.20
36132;DHT22;22185;48.738;9.324;2023-03-16T13:46:15;21.00;74.30
36132;DHT22;22185;48.738;9.324;2023-03-16T13:48:18;21.20;77.00
36132;DHT22;22185;48.738;9.324;2023-03-16T13:50:20;20.80;71.20
36132;DHT22;22185;48.738;9.324;2023-03-16T13:52:24;19.90;77.20
36132;DHT22;22185;48.738;9.324;2023-03-16T13:54:27;18.60;76.50
36132;DHT22;22185;48.738;9.324;2023-03-16T13:56:30;17.80;79.70
36132;DHT22;22185;48.738;9.324;2023-03-16T13:58:33;18.80;82.20
36132;DHT22;22185;48.738;9.324;2023-03-16T14:00:36;18.90;79.70
36132;DHT22;22185;48.738;9.324;2023-03-16T14:02:45;18.50;77.10
36132;DHT22;22185;48.738;9.324;2023-03-16T14:04:47;18.10;82.00
36132;DHT22;22185;48.738;9.324;2023-03-16T14:06:58;18.10;82.20
36132;DHT22;22185;48.738;9.324;2023-03-16T14:09:02;18.30;81.00
36132;DHT22;22185;48.738;9.324;2023-03-16T14:11:04;19.10;82.70
36132;DHT22;22185;48.738;9.324;2023-03-16T14:13:08;20.30;82.10
36132;DHT22;22185;48.738;9.324;2023-03-16T14:15:10;22.10;75.70
36132;DHT22;22185;48.738;9.324;2023-03-16T14:17:15;22.30;76.00
36132;DHT22;22185;48.738;9.324;2023-03-16T14:19:19;22.60;73.30
36132;DHT22;22185;48.738;9.324;2023-03-16T14:21:24;23.60;71.30
36132;DHT22;22185;48.738;9.324;2023-03-16T14:23:30;23.10;70.80
36132;DHT22;22185;48.738;9.324;2023-03-16T14:25:33;23.80;71.80
36132;DHT22;22185;48.738;9.324;2023-03-16T14:29:44;23.40;67.00
36132;DHT22;22185;48.738;9.324;2023-03-16T14:31:48;23.30;70.70
36132;DHT22;22185;48.738;9.324;2023-03-16T14:33:50;22.70;70.90